Time;durP1;ratioP1;P1;durP2;ratioP2;P2;SDS_P1;SDS_P2;PMS_P1;PMS_P2;Temp;Humidity;BMP_temperature;BMP_pressure;BME280_temperature;BME280_humidity;BME280_pressure;Samples;Min_cycle;Max_cycle;Signal;HPM_P1;HPM_P2
2022/02/20 00:01:13;;;;;;;3.73;1.10;;;6.10;99.90;;;;;;5023425;28;20248;-56
2022/02/20 00:03:40;;;;;;;4.33;1.00;;;6.10;99.90;;;;;;5026256;28;20632;-56
2022/02/20 00:06:08;;;;;;;6.13;1.00;;;6.10;99.90;;;;;;5022628;28;20206;-58
2022/02/20 00:08:35;;;;;;;6.03;1.13;;;6.10;99.90;;;;;;5024732;28;20200;-58
2022/02/20 00:11:02;;;;;;;5.10;1.10;;;6.10;99.90;;;;;;5022384;28;20316;-56
2022/02/20 00:13:28;;;;;;;8.50;1.07;;;6.10;99.90;;;;;;5030852;28;20267;-58
2022/02/20 00:15:56;;;;;;;2.77;1.40;;;6.10;99.90;;;;;;5021595;28;20265;-58
2022/02/20 00:18:23;;;;;;;4.30;1.13;;;6.10;99.90;;;;;;5041459;28;20210;-58
2022/02/20 00:20:49;;;;;;;7.17;1.00;;;6.10;99.90;;;;;;5011186;28;20314;-57
2022/02/20 00:23:17;;;;;;;5.60;1.93;;;6.10;99.90;;;;;;5020658;28;20290;-58
2022/02/20 00:25:45;;;;;;;5.50;0.90;;;6.10;99.90;;;;;;5026762;28;20245;-56
2022/02/20 00:28:12;;;;;;;4.47;1.90;;;6.10;99.90;;;;;;5032553;28;20660;-57
2022/02/20 00:30:39;;;;;;;7.00;1.43;;;6.10;99.90;;;;;;5021642;28;20695;-57
2022/02/20 00:33:06;;;;;;;2.63;1.00;;;6.00;99.90;;;;;;5024440;28;20227;-57
2022/02/20 00:35:34;;;;;;;2.50;0.70;;;6.00;99.90;;;;;;5024105;28;20207;-57
2022/02/20 00:38:03;;;;;;;3.50;0.80;;;6.00;99.90;;;;;;5023194;28;20212;-55
2022/02/20 00:40:30;;;;;;;5.83;1.03;;;5.90;99.90;;;;;;5020411;28;20289;-55
2022/02/20 00:42:57;;;;;;;3.40;1.03;;;5.90;99.90;;;;;;5026507;28;21353;-57
2022/02/20 00:45:24;;;;;;;3.50;0.77;;;6.00;99.90;;;;;;5021825;28;20219;-56
2022/02/20 00:47:51;;;;;;;5.23;0.97;;;6.10;99.90;;;;;;5023172;28;20247;-56
2022/02/20 00:50:18;;;;;;;4.03;1.07;;;6.10;99.90;;;;;;5022524;28;20327;-57
2022/02/20 00:52:45;;;;;;;2.97;0.67;;;6.00;99.90;;;;;;5014622;28;20424;-56
2022/02/20 00:55:13;;;;;;;3.80;0.83;;;6.00;99.90;;;;;;5021017;28;20645;-56
2022/02/20 00:57:40;;;;;;;2.77;1.03;;;6.10;99.90;;;;;;5021131;28;20306;-56
2022/02/20 01:00:09;;;;;;;3.17;0.73;;;6.10;99.90;;;;;;5019116;28;21975;-56
2022/02/20 01:02:36;;;;;;;2.20;0.87;;;6.00;99.90;;;;;;5023568;28;20227;-57
2022/02/20 01:05:04;;;;;;;3.33;0.73;;;6.00;99.90;;;;;;5021209;28;20338;-56
2022/02/20 01:07:31;;;;;;;2.80;0.90;;;6.00;99.90;;;;;;5019467;28;20208;-56
2022/02/20 01:09:58;;;;;;;2.33;0.60;;;6.00;99.90;;;;;;5015310;28;20232;-57
2022/02/20 01:12:25;;;;;;;6.73;0.70;;;5.90;99.90;;;;;;5023565;28;20300;-57
2022/02/20 01:14:52;;;;;;;5.73;0.70;;;5.90;99.90;;;;;;5023730;28;20278;-55
2022/02/20 01:17:19;;;;;;;4.83;0.80;;;5.90;99.90;;;;;;5018722;28;20238;-56
2022/02/20 01:19:46;;;;;;;3.90;0.63;;;5.90;99.90;;;;;;5020434;28;20211;-56
2022/02/20 01:22:13;;;;;;;4.00;0.67;;;6.00;99.90;;;;;;5037927;28;20341;-56
2022/02/20 01:24:39;;;;;;;3.37;1.23;;;6.00;99.90;;;;;;5018333;28;20197;-56
2022/02/20 01:27:06;;;;;;;1.27;0.50;;;6.00;99.90;;;;;;5021556;28;20195;-56
2022/02/20 01:29:33;;;;;;;3.23;0.87;;;6.00;99.90;;;;;;5016361;28;20211;-56
2022/02/20 01:32:00;;;;;;;3.67;0.60;;;6.10;99.90;;;;;;5026232;28;20298;-56
2022/02/20 01:34:27;;;;;;;3.77;1.00;;;6.20;99.90;;;;;;5020481;28;20378;-56
2022/02/20 01:36:55;;;;;;;2.43;0.73;;;6.10;99.90;;;;;;5020523;28;20237;-56
2022/02/20 01:39:22;;;;;;;3.90;0.80;;;6.20;99.90;;;;;;5018791;28;20223;-56
2022/02/20 01:41:50;;;;;;;3.23;0.80;;;6.20;99.90;;;;;;5025223;28;20650;-56
2022/02/20 01:44:17;;;;;;;5.77;0.70;;;6.30;99.90;;;;;;5021320;28;20338;-57
2022/02/20 01:46:46;;;;;;;3.67;0.70;;;6.20;99.90;;;;;;5020897;28;20207;-56
2022/02/20 01:49:14;;;;;;;4.27;0.60;;;6.10;99.90;;;;;;5022824;28;20207;-56
2022/02/20 01:51:41;;;;;;;6.17;1.87;;;6.00;99.90;;;;;;5019216;28;20231;-57
2022/02/20 01:54:08;;;;;;;3.30;0.77;;;6.10;99.90;;;;;;5023351;28;20250;-57
2022/02/20 01:56:36;;;;;;;2.70;0.80;;;6.00;99.90;;;;;;5023124;28;20216;-57
2022/02/20 01:59:04;;;;;;;3.17;1.10;;;6.00;99.90;;;;;;5024303;28;20295;-57
2022/02/20 02:01:31;;;;;;;3.63;0.87;;;6.00;99.90;;;;;;5022046;28;20307;-56
2022/02/20 02:03:58;;;;;;;8.50;1.10;;;6.10;99.90;;;;;;5026362;28;20236;-57
2022/02/20 02:06:25;;;;;;;2.70;0.90;;;6.00;99.90;;;;;;5023648;28;20204;-56
2022/02/20 02:08:52;;;;;;;2.37;1.00;;;6.10;99.90;;;;;;5022572;28;20269;-57
2022/02/20 02:11:19;;;;;;;4.47;0.93;;;6.00;99.90;;;;;;5023958;28;20266;-57
2022/02/20 02:13:46;;;;;;;1.40;0.80;;;6.00;99.90;;;;;;5025370;28;20303;-55
2022/02/20 02:16:13;;;;;;;1.63;0.70;;;6.00;99.90;;;;;;5026611;28;20207;-55
2022/02/20 02:18:42;;;;;;;4.03;0.90;;;6.10;99.90;;;;;;5026028;28;20268;-57
2022/02/20 02:21:09;;;;;;;5.13;1.53;;;6.10;99.90;;;;;;5022185;28;20212;-57
2022/02/20 02:23:36;;;;;;;2.87;1.30;;;5.90;99.90;;;;;;5025940;28;20203;-57
2022/02/20 02:26:05;;;;;;;2.00;1.00;;;5.80;99.90;;;;;;5021835;28;20310;-55
2022/02/20 02:28:34;;;;;;;1.53;0.90;;;5.80;99.90;;;;;;5025001;28;21206;-55
2022/02/20 02:31:05;;;;;;;3.57;0.90;;;5.60;99.90;;;;;;5022431;28;20224;-55
2022/02/20 02:33:33;;;;;;;2.13;1.33;;;5.60;99.90;;;;;;5023687;28;20211;-55
2022/02/20 02:36:03;;;;;;;4.13;1.00;;;5.60;99.90;;;;;;5022397;28;20204;-55
2022/02/20 02:38:30;;;;;;;6.40;1.60;;;5.60;99.90;;;;;;5023002;28;20192;-57
2022/02/20 02:41:00;;;;;;;7.20;0.97;;;5.60;99.90;;;;;;5022959;28;20201;-57
2022/02/20 02:43:28;;;;;;;3.40;0.90;;;5.60;99.90;;;;;;5020530;28;20297;-60
2022/02/20 02:45:55;;;;;;;3.17;1.07;;;5.60;99.90;;;;;;5021450;28;20211;-56
2022/02/20 02:48:22;;;;;;;4.80;0.93;;;5.50;99.90;;;;;;5023619;28;20811;-56
2022/02/20 02:50:50;;;;;;;4.20;1.00;;;5.50;99.90;;;;;;5025994;28;20349;-56
2022/02/20 02:53:17;;;;;;;1.97;0.73;;;5.40;99.90;;;;;;5025047;28;20246;-57
2022/02/20 02:55:48;;;;;;;5.47;0.87;;;5.40;99.90;;;;;;5024250;28;20218;-57
2022/02/20 02:58:22;;;;;;;4.47;0.73;;;5.40;99.90;;;;;;5021901;28;20302;-56
2022/02/20 03:00:49;;;;;;;4.57;0.87;;;5.40;99.90;;;;;;5017618;28;20788;-56
2022/02/20 03:03:16;;;;;;;1.60;0.77;;;5.40;99.90;;;;;;5024636;28;20227;-57
2022/02/20 03:05:43;;;;;;;5.37;0.87;;;5.40;99.90;;;;;;5022601;28;20699;-57
2022/02/20 03:08:10;;;;;;;8.73;0.90;;;5.30;99.90;;;;;;5024859;28;20374;-57
2022/02/20 03:10:37;;;;;;;7.53;1.20;;;5.30;99.90;;;;;;5019095;28;20243;-56
2022/02/20 03:13:04;;;;;;;6.10;1.10;;;5.30;99.90;;;;;;5027807;28;20308;-56
2022/02/20 03:15:31;;;;;;;3.53;0.90;;;5.30;99.90;;;;;;5023965;28;20220;-55
2022/02/20 03:17:58;;;;;;;4.60;0.70;;;5.20;99.90;;;;;;5023379;28;20205;-55
2022/02/20 03:20:25;;;;;;;3.80;0.80;;;5.20;99.90;;;;;;5019311;28;20300;-54
2022/02/20 03:22:52;;;;;;;2.97;1.00;;;5.20;99.90;;;;;;5021514;28;20271;-56
2022/02/20 03:25:19;;;;;;;4.43;0.90;;;5.20;99.90;;;;;;5021640;28;20386;-56
2022/02/20 03:27:45;;;;;;;1.63;0.53;;;5.20;99.90;;;;;;5021491;28;20759;-56
2022/02/20 03:30:12;;;;;;;7.53;1.30;;;5.20;99.90;;;;;;5017386;28;20292;-56
2022/02/20 03:32:39;;;;;;;4.33;1.20;;;5.20;99.90;;;;;;5019600;28;20661;-56
2022/02/20 03:35:06;;;;;;;5.23;1.20;;;5.20;99.90;;;;;;5022794;28;20214;-56
2022/02/20 03:37:33;;;;;;;4.03;1.20;;;5.10;99.90;;;;;;5024461;28;20201;-57
2022/02/20 03:40:00;;;;;;;4.23;1.40;;;5.10;99.90;;;;;;5024070;28;20287;-56
2022/02/20 03:42:27;;;;;;;4.87;1.17;;;5.10;99.90;;;;;;5021837;28;20221;-56
2022/02/20 03:44:54;;;;;;;3.70;1.47;;;5.10;99.90;;;;;;5024781;28;20616;-56
2022/02/20 03:47:21;;;;;;;2.03;1.50;;;5.00;99.90;;;;;;5019080;28;20201;-56
2022/02/20 03:49:48;;;;;;;5.50;1.93;;;5.00;99.90;;;;;;5022341;28;20196;-56
2022/02/20 03:52:15;;;;;;;6.20;2.80;;;5.00;99.90;;;;;;5020151;28;20618;-56
2022/02/20 03:54:42;;;;;;;10.20;2.20;;;5.10;99.90;;;;;;5021317;28;20337;-56
2022/02/20 03:57:08;;;;;;;6.17;2.30;;;5.00;99.90;;;;;;5023961;28;20207;-56
2022/02/20 03:59:35;;;;;;;4.90;2.20;;;5.00;99.90;;;;;;5020984;28;20202;-56
2022/02/20 04:02:02;;;;;;;4.70;2.40;;;5.00;99.90;;;;;;5020747;28;20213;-55
2022/02/20 04:04:29;;;;;;;3.93;2.50;;;5.10;99.90;;;;;;5022482;28;20742;-56
2022/02/20 04:06:56;;;;;;;6.47;2.70;;;5.00;99.90;;;;;;5024402;28;20292;-57
2022/02/20 04:09:23;;;;;;;4.97;2.73;;;5.00;99.90;;;;;;5021492;28;20659;-57
2022/02/20 04:11:50;;;;;;;6.07;3.00;;;4.90;99.90;;;;;;5024662;28;20194;-55
2022/02/20 04:14:17;;;;;;;5.33;3.07;;;4.90;99.90;;;;;;5021941;28;20231;-56
2022/02/20 04:16:44;;;;;;;5.93;2.83;;;4.90;99.90;;;;;;5022617;28;20729;-61
2022/02/20 04:19:11;;;;;;;6.67;3.50;;;4.90;99.90;;;;;;5021834;28;20967;-56
2022/02/20 04:21:38;;;;;;;7.27;3.50;;;4.80;99.90;;;;;;5021089;28;20225;-56
2022/02/20 04:24:05;;;;;;;7.03;3.87;;;4.90;99.90;;;;;;5020063;28;21548;-56
2022/02/20 04:26:31;;;;;;;6.17;3.67;;;4.90;99.90;;;;;;5023797;28;20701;-58
2022/02/20 04:28:58;;;;;;;8.03;4.10;;;4.90;99.90;;;;;;5019100;28;20293;-56
2022/02/20 04:31:25;;;;;;;7.60;4.10;;;4.90;99.90;;;;;;5017213;28;20232;-56
2022/02/20 04:33:52;;;;;;;7.37;4.57;;;4.90;99.90;;;;;;5021313;28;20294;-59
2022/02/20 04:36:19;;;;;;;5.97;4.47;;;5.00;99.90;;;;;;5021621;28;20290;-56
2022/02/20 04:38:45;;;;;;;6.93;4.03;;;4.90;99.90;;;;;;5021836;28;20200;-56
2022/02/20 04:41:12;;;;;;;8.63;4.23;;;5.00;99.90;;;;;;5020559;28;20207;-57
2022/02/20 04:43:39;;;;;;;8.93;4.27;;;4.90;99.90;;;;;;5025636;28;20328;-57
2022/02/20 04:46:06;;;;;;;9.33;4.70;;;4.90;99.90;;;;;;5021890;28;20253;-56
2022/02/20 04:48:33;;;;;;;6.93;4.67;;;5.00;99.90;;;;;;5022193;28;20265;-56
2022/02/20 04:50:59;;;;;;;9.27;5.03;;;5.00;99.90;;;;;;5019373;28;20635;-56
2022/02/20 04:53:26;;;;;;;7.03;4.63;;;5.00;99.90;;;;;;5021777;28;20266;-57
2022/02/20 04:55:53;;;;;;;10.70;4.43;;;5.00;99.90;;;;;;5021606;28;21019;-57
2022/02/20 04:58:20;;;;;;;9.13;5.10;;;5.00;99.90;;;;;;5025090;28;20210;-56
2022/02/20 05:00:47;;;;;;;12.77;5.60;;;4.90;99.90;;;;;;5019992;28;20228;-57
2022/02/20 05:03:14;;;;;;;10.07;4.70;;;4.90;99.90;;;;;;5021747;28;20739;-56
2022/02/20 05:05:40;;;;;;;6.23;4.53;;;4.90;99.90;;;;;;5026209;28;20313;-55
2022/02/20 05:08:07;;;;;;;5.73;4.70;;;4.90;99.90;;;;;;5018692;28;20196;-55
2022/02/20 05:10:34;;;;;;;9.87;5.17;;;5.00;99.90;;;;;;5017150;28;20909;-55
2022/02/20 05:13:01;;;;;;;9.40;4.77;;;4.90;99.90;;;;;;5021785;28;20640;-55
2022/02/20 05:15:28;;;;;;;6.73;3.90;;;4.90;99.90;;;;;;5016466;28;20290;-56
2022/02/20 05:17:54;;;;;;;8.40;5.00;;;5.00;99.90;;;;;;5019601;28;20561;-55
2022/02/20 05:20:21;;;;;;;6.03;4.33;;;4.90;99.90;;;;;;5018613;28;20567;-57
2022/02/20 05:22:48;;;;;;;8.20;4.80;;;5.10;99.90;;;;;;5019889;28;20300;-56
2022/02/20 05:25:16;;;;;;;8.03;4.50;;;5.00;99.90;;;;;;5020663;28;20656;-55
2022/02/20 05:27:43;;;;;;;9.37;4.30;;;5.00;99.90;;;;;;5023626;28;20255;-56
2022/02/20 05:30:12;;;;;;;9.43;5.40;;;4.90;99.90;;;;;;5017383;28;20201;-57
2022/02/20 05:32:40;;;;;;;8.87;4.43;;;5.00;99.90;;;;;;5022432;28;20659;-57
2022/02/20 05:35:07;;;;;;;9.03;4.43;;;5.00;99.90;;;;;;5020629;28;20213;-56
2022/02/20 05:37:42;;;;;;;7.87;4.30;;;5.00;99.90;;;;;;5012672;28;20231;-54
2022/02/20 05:40:11;;;;;;;6.93;3.97;;;5.00;99.90;;;;;;5021103;28;20225;-57
2022/02/20 05:42:39;;;;;;;7.77;4.07;;;5.00;99.90;;;;;;5015836;28;20433;-56
2022/02/20 05:45:06;;;;;;;8.33;3.97;;;5.10;99.90;;;;;;5019852;28;21253;-56
2022/02/20 05:47:33;;;;;;;10.13;4.10;;;5.10;99.90;;;;;;5021906;28;20499;-56
2022/02/20 05:50:01;;;;;;;12.40;3.87;;;5.20;99.90;;;;;;5015629;28;20725;-56
2022/02/20 05:52:28;;;;;;;10.40;4.20;;;5.20;99.90;;;;;;5018553;28;20216;-56
2022/02/20 05:54:55;;;;;;;10.53;4.57;;;5.20;99.90;;;;;;5017764;28;20277;-56
2022/02/20 05:57:23;;;;;;;12.27;3.90;;;5.30;99.90;;;;;;5022917;28;20588;-57
2022/02/20 05:59:50;;;;;;;18.70;4.23;;;5.30;99.90;;;;;;5014560;28;20231;-57
2022/02/20 06:02:17;;;;;;;8.93;3.50;;;5.30;99.90;;;;;;5016889;28;20683;-57
2022/02/20 06:04:43;;;;;;;9.33;3.47;;;5.40;99.90;;;;;;5015668;28;20882;-55
2022/02/20 06:07:10;;;;;;;15.03;4.77;;;5.40;99.90;;;;;;5021048;28;20650;-54
2022/02/20 06:09:37;;;;;;;7.97;3.37;;;5.50;99.90;;;;;;5018422;28;20316;-56
2022/02/20 06:12:04;;;;;;;10.83;3.60;;;5.50;99.90;;;;;;5020948;28;20214;-55
2022/02/20 06:14:31;;;;;;;14.73;3.30;;;5.60;99.90;;;;;;5024091;28;20551;-56
2022/02/20 06:16:58;;;;;;;14.03;3.70;;;5.70;99.90;;;;;;5020056;28;20198;-56
2022/02/20 06:19:25;;;;;;;9.80;3.53;;;5.80;99.90;;;;;;5019659;28;20651;-56
2022/02/20 06:21:52;;;;;;;16.90;3.47;;;5.80;99.90;;;;;;4989053;28;20348;-56
2022/02/20 06:24:19;;;;;;;11.33;3.47;;;5.90;99.90;;;;;;5017708;28;20286;-56
2022/02/20 06:26:46;;;;;;;12.20;3.23;;;6.00;99.90;;;;;;5022155;28;20212;-57
2022/02/20 06:29:13;;;;;;;14.23;3.43;;;6.00;99.90;;;;;;5020185;28;20745;-56
2022/02/20 06:31:41;;;;;;;8.40;2.93;;;6.10;99.90;;;;;;5003912;28;20617;-57
2022/02/20 06:34:08;;;;;;;6.77;2.87;;;6.20;99.90;;;;;;5021443;28;20212;-56
2022/02/20 06:36:35;;;;;;;14.73;2.73;;;6.20;99.90;;;;;;5021432;28;20566;-57
2022/02/20 06:39:03;;;;;;;13.67;3.43;;;6.30;99.90;;;;;;5018372;28;20291;-56
2022/02/20 06:41:30;;;;;;;16.80;3.50;;;6.40;99.90;;;;;;5021169;28;21294;-57
2022/02/20 06:43:57;;;;;;;8.70;2.90;;;6.50;99.90;;;;;;5019496;28;20276;-56
2022/02/20 06:46:25;;;;;;;10.73;2.67;;;6.70;99.90;;;;;;5023621;28;21002;-56
2022/02/20 06:48:51;;;;;;;8.67;2.50;;;6.80;99.90;;;;;;5029764;28;21792;-56
2022/02/20 06:51:18;;;;;;;16.10;3.50;;;6.90;99.90;;;;;;5023024;28;20238;-56
2022/02/20 06:53:45;;;;;;;8.07;2.57;;;7.00;99.90;;;;;;5026146;28;20752;-55
2022/02/20 06:56:12;;;;;;;6.43;2.50;;;7.10;99.90;;;;;;5025474;28;20208;-56
2022/02/20 06:58:39;;;;;;;9.63;2.33;;;7.20;99.90;;;;;;5026175;28;20243;-55
2022/02/20 07:01:06;;;;;;;9.87;3.20;;;7.30;99.90;;;;;;5020124;28;20604;-57
2022/02/20 07:03:33;;;;;;;7.80;2.40;;;7.40;99.90;;;;;;5026074;28;20350;-57
2022/02/20 07:06:00;;;;;;;3.90;2.33;;;7.50;99.90;;;;;;5039083;28;20626;-56
2022/02/20 07:08:27;;;;;;;10.60;4.30;;;7.60;99.90;;;;;;5025731;28;20819;-56
2022/02/20 07:10:54;;;;;;;7.00;2.17;;;7.70;99.90;;;;;;5035878;28;20309;-56
2022/02/20 07:13:20;;;;;;;6.37;2.40;;;7.70;99.90;;;;;;5024194;28;20205;-56
2022/02/20 07:15:48;;;;;;;8.03;2.30;;;7.80;99.90;;;;;;5023087;28;20299;-56
2022/02/20 07:18:16;;;;;;;5.33;2.33;;;7.80;99.90;;;;;;5018587;28;20715;-56
2022/02/20 07:20:43;;;;;;;5.70;2.17;;;7.90;99.90;;;;;;5021074;28;20933;-56
2022/02/20 07:23:10;;;;;;;4.57;1.90;;;8.00;99.90;;;;;;5024049;28;20229;-56
2022/02/20 07:25:37;;;;;;;3.77;1.90;;;8.00;99.90;;;;;;5018969;28;20236;-57
2022/02/20 07:28:04;;;;;;;10.03;3.03;;;8.10;99.90;;;;;;5024492;28;20216;-57
2022/02/20 07:30:32;;;;;;;7.43;2.20;;;8.10;99.90;;;;;;5025002;28;21974;-56
2022/02/20 07:33:04;;;;;;;8.73;2.77;;;8.10;99.90;;;;;;5026451;28;20242;-57
2022/02/20 07:35:32;;;;;;;5.07;2.53;;;8.10;99.90;;;;;;5021294;28;20204;-56
2022/02/20 07:37:59;;;;;;;7.40;2.67;;;8.20;99.90;;;;;;5016669;28;20571;-56
2022/02/20 07:40:27;;;;;;;6.10;2.13;;;8.20;99.90;;;;;;5023104;28;20294;-56
2022/02/20 07:42:55;;;;;;;4.97;2.50;;;8.30;99.90;;;;;;5019511;28;20777;-56
2022/02/20 07:45:23;;;;;;;5.10;2.50;;;8.30;99.90;;;;;;5016932;28;20204;-56
2022/02/20 07:47:56;;;;;;;6.33;3.00;;;8.40;99.90;;;;;;5015905;28;20203;-57
2022/02/20 07:50:24;;;;;;;5.43;2.80;;;8.40;99.90;;;;;;5017615;28;21439;-57
2022/02/20 07:52:52;;;;;;;5.47;3.00;;;8.40;99.90;;;;;;5014970;28;20207;-56
2022/02/20 07:55:19;;;;;;;4.00;2.77;;;8.40;99.90;;;;;;5012189;28;20282;-56
2022/02/20 07:57:47;;;;;;;4.60;2.83;;;8.50;99.90;;;;;;5014202;28;20230;-55
2022/02/20 08:00:16;;;;;;;4.57;2.70;;;8.50;99.90;;;;;;5009626;28;20416;-57
2022/02/20 08:02:44;;;;;;;4.07;2.60;;;8.60;99.90;;;;;;5014370;28;20297;-57
2022/02/20 08:05:11;;;;;;;7.33;2.70;;;8.60;99.90;;;;;;5014158;28;20265;-57
2022/02/20 08:07:38;;;;;;;6.83;3.10;;;8.60;99.90;;;;;;5013877;28;20200;-57
2022/02/20 08:10:06;;;;;;;4.93;2.70;;;8.70;99.90;;;;;;5026327;28;20258;-56
2022/02/20 08:12:33;;;;;;;5.67;2.50;;;8.70;99.90;;;;;;5027903;28;20203;-56
2022/02/20 08:15:00;;;;;;;3.07;2.63;;;8.80;99.90;;;;;;5027248;28;20264;-56
2022/02/20 08:17:28;;;;;;;5.27;3.10;;;8.80;99.90;;;;;;5016996;28;20229;-56
2022/02/20 08:19:55;;;;;;;4.77;3.13;;;8.80;99.90;;;;;;5021598;28;20485;-56
2022/02/20 08:22:23;;;;;;;5.10;3.50;;;8.90;99.90;;;;;;5024226;28;20207;-57
2022/02/20 08:24:50;;;;;;;11.10;3.60;;;8.90;99.90;;;;;;5020613;28;20230;-57
2022/02/20 08:27:17;;;;;;;5.17;3.37;;;9.00;99.90;;;;;;5025521;28;20283;-57
2022/02/20 08:29:44;;;;;;;9.30;4.00;;;9.00;99.90;;;;;;5026668;28;20195;-57
2022/02/20 08:32:10;;;;;;;10.77;4.03;;;9.00;99.90;;;;;;5024972;28;20466;-57
2022/02/20 08:34:37;;;;;;;12.17;4.80;;;9.10;99.90;;;;;;5024621;28;20258;-57
2022/02/20 08:37:07;;;;;;;7.03;4.90;;;9.20;99.90;;;;;;5027207;28;20204;-56
2022/02/20 08:39:34;;;;;;;9.70;4.50;;;9.20;99.90;;;;;;5021899;28;20325;-57
2022/02/20 08:42:02;;;;;;;9.03;5.17;;;9.20;99.90;;;;;;5019313;28;20566;-56
2022/02/20 08:44:33;;;;;;;12.80;5.77;;;9.20;99.90;;;;;;5018165;28;20877;-56
2022/02/20 08:47:01;;;;;;;9.23;5.13;;;9.20;99.90;;;;;;5026446;28;20344;-56
2022/02/20 08:49:28;;;;;;;12.83;5.53;;;9.20;99.90;;;;;;5014898;28;20638;-63
2022/02/20 08:51:55;;;;;;;7.73;4.47;;;9.30;99.90;;;;;;5016661;28;20202;-64
2022/02/20 08:54:23;;;;;;;16.17;5.57;;;9.30;99.90;;;;;;5014696;28;20649;-61
2022/02/20 08:56:50;;;;;;;9.70;5.60;;;9.40;99.90;;;;;;5023691;28;20201;-62
2022/02/20 08:59:17;;;;;;;8.93;4.73;;;9.40;99.90;;;;;;5026487;28;20725;-61
2022/02/20 09:01:44;;;;;;;11.53;5.57;;;9.50;99.90;;;;;;5025232;28;20198;-62
2022/02/20 09:04:12;;;;;;;16.03;5.63;;;9.50;99.90;;;;;;5025274;28;20321;-62
2022/02/20 09:06:40;;;;;;;14.97;5.27;;;9.50;99.90;;;;;;5022736;28;20258;-63
2022/02/20 09:09:07;;;;;;;9.90;5.33;;;9.50;99.90;;;;;;5007188;28;20244;-67
2022/02/20 09:11:34;;;;;;;14.10;5.47;;;9.60;99.90;;;;;;5016089;28;20575;-63
2022/02/20 09:14:01;;;;;;;14.53;5.47;;;9.50;99.90;;;;;;5015588;28;20289;-65
2022/02/20 09:16:28;;;;;;;11.00;5.50;;;9.60;99.90;;;;;;5022516;28;20234;-62
2022/02/20 09:18:57;;;;;;;11.90;5.77;;;9.60;99.90;;;;;;5019431;28;20292;-63
2022/02/20 09:21:24;;;;;;;11.30;5.60;;;9.70;99.90;;;;;;5016186;28;20211;-62
2022/02/20 09:23:51;;;;;;;15.50;5.90;;;9.70;99.90;;;;;;5017770;28;20343;-62
2022/02/20 09:26:17;;;;;;;11.13;5.17;;;9.80;99.90;;;;;;5015334;28;20720;-63
2022/02/20 09:28:44;;;;;;;13.07;5.13;;;9.80;99.90;;;;;;5019337;28;20221;-58
2022/02/20 09:31:11;;;;;;;13.60;5.93;;;9.90;99.90;;;;;;5025054;28;20520;-59
2022/02/20 09:33:39;;;;;;;21.13;5.73;;;9.90;99.90;;;;;;5023701;28;20338;-62
2022/02/20 09:36:07;;;;;;;12.33;5.10;;;10.00;99.90;;;;;;5021805;28;20239;-59
2022/02/20 09:38:36;;;;;;;16.43;4.97;;;10.10;99.90;;;;;;5025931;28;20229;-59
2022/02/20 09:41:07;;;;;;;16.13;4.43;;;10.10;99.90;;;;;;5026082;28;21158;-60
2022/02/20 09:43:35;;;;;;;10.57;4.90;;;10.10;99.90;;;;;;5021051;28;20522;-57
2022/02/20 09:46:03;;;;;;;17.00;5.43;;;10.20;99.90;;;;;;5022206;28;20285;-57
2022/02/20 09:48:30;;;;;;;15.10;4.87;;;10.20;99.90;;;;;;5024636;28;20689;-56
2022/02/20 09:51:01;;;;;;;14.83;5.20;;;10.20;99.90;;;;;;5023332;28;20277;-56
2022/02/20 09:53:28;;;;;;;12.23;4.40;;;10.20;99.90;;;;;;5024147;28;20231;-59
2022/02/20 09:55:55;;;;;;;16.33;4.73;;;10.30;99.90;;;;;;5016848;28;20298;-58
2022/02/20 09:58:22;;;;;;;16.23;4.40;;;10.30;99.90;;;;;;5023378;28;20206;-58
2022/02/20 10:01:10;;;;;;;22.03;5.20;;;10.30;99.90;;;;;;5015316;28;20240;-57
2022/02/20 10:03:42;;;;;;;19.37;4.57;;;10.40;99.90;;;;;;5037806;28;20244;-56
2022/02/20 10:06:11;;;;;;;16.63;4.60;;;10.40;99.90;;;;;;5010467;28;20311;-61
2022/02/20 10:08:46;;;;;;;11.70;4.03;;;10.40;99.90;;;;;;5023736;28;20196;-57
2022/02/20 10:11:23;;;;;;;13.33;4.83;;;10.40;99.90;;;;;;5027072;28;20226;-57
2022/02/20 10:13:52;;;;;;;21.83;4.77;;;10.40;99.90;;;;;;5022730;28;20215;-56
2022/02/20 10:16:29;;;;;;;10.83;4.33;;;10.40;99.90;;;;;;5020961;28;20204;-57
2022/02/20 10:18:57;;;;;;;18.67;4.40;;;10.40;99.90;;;;;;5016905;28;20268;-57
2022/02/20 10:21:27;;;;;;;18.30;5.10;;;10.40;99.90;;;;;;5020966;28;20203;-57
2022/02/20 10:24:03;;;;;;;19.40;4.70;;;10.50;99.90;;;;;;5033585;28;20306;-57
2022/02/20 10:26:33;;;;;;;11.60;3.83;;;10.50;99.90;;;;;;5030279;28;20211;-57
2022/02/20 10:29:10;;;;;;;20.97;4.87;;;10.50;99.90;;;;;;5028546;28;20203;-57
2022/02/20 10:31:38;;;;;;;20.13;4.70;;;10.50;99.90;;;;;;5033437;28;20776;-57
2022/02/20 10:34:28;;;;;;;18.33;4.20;;;10.50;99.90;;;;;;5022750;28;20257;-56
2022/02/20 10:37:05;;;;;;;13.80;3.77;;;10.50;99.90;;;;;;5018698;28;20212;-56
2022/02/20 10:39:33;;;;;;;21.47;4.80;;;10.50;99.90;;;;;;5017515;28;20672;-56
2022/02/20 10:42:10;;;;;;;16.50;4.30;;;10.60;99.90;;;;;;5023446;28;20224;-57
2022/02/20 10:44:59;;;;;;;23.30;4.67;;;10.50;99.90;;;;;;5022100;28;20247;-56
2022/02/20 10:47:27;;;;;;;20.93;4.80;;;10.40;99.90;;;;;;5027261;28;20301;-56
2022/02/20 10:49:54;;;;;;;21.03;5.10;;;10.40;99.90;;;;;;5019392;28;20760;-59
2022/02/20 10:52:24;;;;;;;12.47;4.07;;;10.40;99.90;;;;;;5027434;28;20570;-56
2022/02/20 10:55:08;;;;;;;20.37;4.10;;;10.30;99.90;;;;;;5027519;28;20240;-57
2022/02/20 10:57:46;;;;;;;18.77;4.67;;;10.30;99.90;;;;;;5024721;28;20202;-56
2022/02/20 11:00:16;;;;;;;17.33;4.07;;;10.30;99.90;;;;;;5024010;28;20223;-56
2022/02/20 11:02:44;;;;;;;18.97;3.60;;;10.30;99.90;;;;;;5011196;28;20231;-58
2022/02/20 11:05:12;;;;;;;16.10;3.80;;;10.30;99.90;;;;;;5025829;28;20420;-56
2022/02/20 11:07:40;;;;;;;16.90;4.03;;;10.30;99.90;;;;;;5030690;28;20208;-58
2022/02/20 11:10:11;;;;;;;14.70;4.47;;;10.30;99.90;;;;;;5019831;28;20261;-56
2022/02/20 11:12:39;;;;;;;13.17;4.00;;;10.20;99.90;;;;;;5028003;28;20290;-56
2022/02/20 11:15:07;;;;;;;28.97;5.10;;;10.20;99.90;;;;;;5030500;28;20217;-58
2022/02/20 11:17:38;;;;;;;13.50;3.80;;;10.10;99.90;;;;;;5027382;28;20235;-57
2022/02/20 11:20:06;;;;;;;21.50;4.53;;;10.10;99.90;;;;;;5019893;28;20300;-57
2022/02/20 11:22:36;;;;;;;19.97;4.83;;;10.10;99.90;;;;;;5028420;28;20243;-57
2022/02/20 11:25:06;;;;;;;18.63;4.23;;;10.10;99.90;;;;;;5024725;28;20286;-57
2022/02/20 11:27:43;;;;;;;15.70;3.83;;;10.10;99.90;;;;;;5017384;28;20206;-57
2022/02/20 11:30:11;;;;;;;19.07;5.20;;;10.00;99.90;;;;;;5012053;28;20206;-57
2022/02/20 11:32:43;;;;;;;22.30;4.80;;;10.10;99.90;;;;;;5042126;28;20508;-58
2022/02/20 11:35:13;;;;;;;14.30;4.47;;;10.00;99.90;;;;;;5009563;28;20217;-57
2022/02/20 11:37:48;;;;;;;24.70;4.93;;;9.90;99.90;;;;;;5024499;28;20293;-58
2022/02/20 11:40:16;;;;;;;23.80;3.63;;;10.00;99.90;;;;;;5022440;28;20207;-57
2022/02/20 11:42:58;;;;;;;25.23;4.10;;;10.00;99.90;;;;;;5023154;28;20230;-60
2022/02/20 11:45:30;;;;;;;19.57;4.77;;;9.90;99.90;;;;;;5023003;28;20240;-57
2022/02/20 11:48:08;;;;;;;18.20;4.10;;;9.90;99.90;;;;;;5028363;28;20227;-57
2022/02/20 11:50:39;;;;;;;22.70;4.67;;;9.90;99.90;;;;;;5025439;28;20233;-57
2022/02/20 11:53:11;;;;;;;24.67;4.17;;;9.90;99.90;;;;;;5016526;28;20270;-58
2022/02/20 11:55:43;;;;;;;19.83;4.10;;;9.90;99.90;;;;;;5027326;28;20607;-58
2022/02/20 11:58:13;;;;;;;19.37;4.77;;;9.90;99.90;;;;;;5014958;28;20276;-57
2022/02/20 12:00:53;;;;;;;19.40;4.40;;;9.80;99.90;;;;;;5021160;28;20320;-57
2022/02/20 12:03:24;;;;;;;22.97;4.47;;;9.90;99.90;;;;;;5028956;28;20243;-60
2022/02/20 12:06:10;;;;;;;18.30;4.50;;;9.90;99.90;;;;;;5020999;28;20254;-60
2022/02/20 12:08:40;;;;;;;14.57;3.87;;;9.90;99.90;;;;;;5026667;28;20227;-63
2022/02/20 12:11:13;;;;;;;17.87;4.77;;;9.90;99.90;;;;;;5010083;28;20207;-57
2022/02/20 12:13:46;;;;;;;18.70;4.10;;;9.90;99.90;;;;;;5029869;28;20269;-56
2022/02/20 12:16:46;;;;;;;21.83;4.53;;;9.80;99.90;;;;;;5017873;28;20200;-58
2022/02/20 12:19:41;;;;;;;19.27;4.37;;;9.80;99.90;;;;;;5025268;28;20741;-58
2022/02/20 12:22:26;;;;;;;14.47;4.77;;;9.80;99.90;;;;;;5022126;28;20204;-58
2022/02/20 12:24:56;;;;;;;19.93;4.23;;;9.80;99.90;;;;;;5027399;28;20300;-57
2022/02/20 12:27:25;;;;;;;26.53;5.00;;;9.80;99.90;;;;;;5026184;28;20204;-56
2022/02/20 12:30:13;;;;;;;21.23;5.07;;;9.80;99.90;;;;;;5023468;28;20656;-56
2022/02/20 12:32:42;;;;;;;16.23;4.17;;;9.80;99.90;;;;;;5022061;28;20513;-58
2022/02/20 12:35:08;;;;;;;21.17;5.33;;;9.80;99.90;;;;;;5020663;28;20203;-56
2022/02/20 12:37:41;;;;;;;21.43;4.53;;;9.80;99.90;;;;;;5024557;28;20338;-57
2022/02/20 12:40:18;;;;;;;11.20;4.23;;;9.80;99.90;;;;;;5022942;28;20298;-57
2022/02/20 12:43:07;;;;;;;18.60;4.83;;;9.70;99.90;;;;;;5027011;28;20201;-57
2022/02/20 12:45:37;;;;;;;16.43;4.30;;;9.70;99.90;;;;;;5024146;28;20302;-55
2022/02/20 12:48:08;;;;;;;24.97;4.00;;;9.70;99.90;;;;;;5022188;28;20289;-54
2022/02/20 12:50:38;;;;;;;18.87;4.57;;;9.70;99.90;;;;;;5029377;28;20196;-56
2022/02/20 12:53:05;;;;;;;18.00;5.17;;;9.80;99.90;;;;;;5022366;28;20346;-56
2022/02/20 12:55:34;;;;;;;18.07;5.10;;;9.70;99.90;;;;;;5027648;28;20237;-56
2022/02/20 12:58:10;;;;;;;18.97;3.67;;;9.70;99.90;;;;;;5026038;28;20682;-55